Time;durP1;ratioP1;P1;durP2;ratioP2;P2;SDS_P1;SDS_P2;PMS_P1;PMS_P2;Temp;Humidity;BMP_temperature;BMP_pressure;BME280_temperature;BME280_humidity;BME280_pressure;Samples;Min_cycle;Max_cycle;Signal;HPM_P1;HPM_P2
2022/07/29 00:01:32;;;;;;;1.50;0.90;;;20.60;81.50;;;;;;4941284;28;20581;-79
2022/07/29 00:03:59;;;;;;;1.50;0.90;;;20.50;81.10;;;;;;4952650;29;20467;-77
2022/07/29 00:06:26;;;;;;;1.40;0.90;;;20.50;80.40;;;;;;4943892;28;20525;-76
2022/07/29 00:08:53;;;;;;;1.43;1.00;;;20.50;80.60;;;;;;4948610;29;21050;-81
2022/07/29 00:11:20;;;;;;;1.47;0.90;;;20.50;80.30;;;;;;4945239;28;20533;-80
2022/07/29 00:13:48;;;;;;;1.47;0.90;;;20.50;80.30;;;;;;4957288;28;20542;-81
2022/07/29 00:16:15;;;;;;;1.47;0.90;;;20.50;80.40;;;;;;4946893;28;20560;-78
2022/07/29 00:18:42;;;;;;;1.47;0.90;;;20.50;80.30;;;;;;4951684;28;20491;-81
2022/07/29 00:21:09;;;;;;;1.50;0.90;;;20.50;80.50;;;;;;4944887;28;20491;-79
2022/07/29 00:23:36;;;;;;;1.47;0.90;;;20.50;80.40;;;;;;4958387;28;20466;-80
2022/07/29 00:26:03;;;;;;;1.43;0.90;;;20.50;80.70;;;;;;4944824;28;20490;-79
2022/07/29 00:28:31;;;;;;;1.47;0.90;;;20.50;81.30;;;;;;4956280;28;20475;-79
2022/07/29 00:31:02;;;;;;;1.47;0.90;;;20.50;81.00;;;;;;4952220;29;20684;-78
2022/07/29 00:33:35;;;;;;;1.43;0.90;;;20.50;81.80;;;;;;4957151;29;20481;-79
2022/07/29 00:36:03;;;;;;;1.47;0.90;;;20.50;82.60;;;;;;4950365;28;20469;-79
2022/07/29 00:38:30;;;;;;;1.47;0.90;;;20.40;82.40;;;;;;4960503;28;20549;-78
2022/07/29 00:40:57;;;;;;;1.40;0.90;;;20.40;81.30;;;;;;4943911;28;20474;-81
2022/07/29 00:43:24;;;;;;;1.43;0.90;;;20.40;81.50;;;;;;4956110;28;20988;-80
2022/07/29 00:45:51;;;;;;;1.43;0.90;;;20.40;81.70;;;;;;4947428;28;20971;-78
2022/07/29 00:48:19;;;;;;;1.43;0.90;;;20.40;82.00;;;;;;4963781;28;20553;-79
2022/07/29 00:50:46;;;;;;;1.47;0.90;;;20.40;82.00;;;;;;4954018;29;20497;-78
2022/07/29 00:53:13;;;;;;;1.43;0.90;;;20.40;82.40;;;;;;4957571;28;20545;-79
2022/07/29 00:55:40;;;;;;;1.50;0.93;;;20.40;81.00;;;;;;4955877;29;20550;-79
2022/07/29 00:58:07;;;;;;;1.47;0.90;;;20.30;81.70;;;;;;4948436;28;20498;-80
2022/07/29 01:00:35;;;;;;;1.40;0.90;;;20.30;81.50;;;;;;4956858;29;20470;-79
2022/07/29 01:03:01;;;;;;;1.47;0.90;;;20.30;81.60;;;;;;4947209;28;20569;-79
2022/07/29 01:05:30;;;;;;;1.47;0.90;;;20.30;83.00;;;;;;4954405;29;20463;-79
2022/07/29 01:07:58;;;;;;;1.43;0.90;;;20.20;81.90;;;;;;4946490;28;20495;-79
2022/07/29 01:10:26;;;;;;;1.43;0.90;;;20.30;82.20;;;;;;4952268;29;20467;-76
2022/07/29 01:12:55;;;;;;;1.47;0.90;;;20.20;81.30;;;;;;4950449;28;20501;-80
2022/07/29 01:15:22;;;;;;;1.43;0.90;;;20.20;81.20;;;;;;4952638;28;20498;-79
2022/07/29 01:17:58;;;;;;;1.43;0.90;;;20.20;81.60;;;;;;4952481;28;20497;-76
2022/07/29 01:20:30;;;;;;;1.43;0.90;;;20.20;81.20;;;;;;4954791;29;20971;-80
2022/07/29 01:23:35;;;;;;;1.50;0.90;;;20.20;81.00;;;;;;4951451;28;20742;-79
2022/07/29 01:26:28;;;;;;;1.47;0.90;;;20.20;81.50;;;;;;4946353;28;20474;-78
2022/07/29 01:29:12;;;;;;;1.50;0.90;;;20.20;81.30;;;;;;4955894;28;20891;-81
2022/07/29 01:31:45;;;;;;;1.47;0.90;;;20.20;81.70;;;;;;4948611;28;20494;-81
2022/07/29 01:34:17;;;;;;;1.50;0.90;;;20.20;81.50;;;;;;4956660;29;20485;-79
2022/07/29 01:36:48;;;;;;;1.43;0.90;;;20.20;81.60;;;;;;4947635;28;20534;-81
2022/07/29 01:39:20;;;;;;;1.47;0.90;;;20.20;81.80;;;;;;4948653;28;20463;-79
2022/07/29 01:41:54;;;;;;;1.47;0.90;;;20.20;82.30;;;;;;4945075;28;20521;-81
2022/07/29 01:44:31;;;;;;;1.43;0.90;;;20.20;82.40;;;;;;4957032;28;20584;-79
2022/07/29 01:47:02;;;;;;;1.40;0.90;;;20.20;82.10;;;;;;4953484;28;21214;-79
2022/07/29 01:49:34;;;;;;;1.47;0.90;;;20.20;82.70;;;;;;4953862;28;20470;-80
2022/07/29 01:52:04;;;;;;;1.47;0.90;;;20.20;82.80;;;;;;4947643;28;20974;-81
2022/07/29 01:54:36;;;;;;;1.40;0.90;;;20.20;83.20;;;;;;4953038;29;20468;-78
2022/07/29 01:57:05;;;;;;;1.43;0.90;;;20.10;82.50;;;;;;4942388;28;20494;-80
2022/07/29 01:59:35;;;;;;;1.50;0.90;;;20.10;82.80;;;;;;4956122;29;20463;-80
2022/07/29 02:02:03;;;;;;;1.43;0.90;;;20.10;83.50;;;;;;4946091;28;20554;-77
2022/07/29 02:04:34;;;;;;;1.43;0.90;;;20.10;83.30;;;;;;4952838;29;20458;-79
2022/07/29 02:07:06;;;;;;;1.50;1.00;;;20.10;83.10;;;;;;4946565;28;20559;-80
2022/07/29 02:09:36;;;;;;;1.47;0.90;;;20.10;83.30;;;;;;4956308;29;20523;-79
2022/07/29 02:12:05;;;;;;;1.47;0.90;;;20.10;83.40;;;;;;4951891;28;20494;-80
2022/07/29 02:14:37;;;;;;;1.50;0.90;;;20.00;83.30;;;;;;4956088;28;20462;-80
2022/07/29 02:17:04;;;;;;;1.47;0.90;;;20.00;82.50;;;;;;4952189;28;21046;-77
2022/07/29 02:19:34;;;;;;;1.47;0.90;;;20.00;83.30;;;;;;4955055;29;20805;-82
2022/07/29 02:22:02;;;;;;;1.50;1.00;;;20.00;82.30;;;;;;4950952;28;20495;-78
2022/07/29 02:24:30;;;;;;;1.50;0.90;;;20.00;83.10;;;;;;4955888;29;20510;-79
2022/07/29 02:26:59;;;;;;;1.43;0.90;;;20.00;83.20;;;;;;4950713;28;20490;-77
2022/07/29 02:29:29;;;;;;;1.43;0.90;;;19.90;83.20;;;;;;4955928;29;20971;-80
2022/07/29 02:31:59;;;;;;;1.47;0.90;;;19.90;82.80;;;;;;4949150;28;20490;-79
2022/07/29 02:34:27;;;;;;;1.50;0.90;;;19.90;83.60;;;;;;4956416;29;20843;-79
2022/07/29 02:36:56;;;;;;;1.47;0.90;;;19.90;83.80;;;;;;4948284;28;21023;-78
2022/07/29 02:39:25;;;;;;;1.43;0.90;;;19.90;83.80;;;;;;4953581;29;20471;-80
2022/07/29 02:41:58;;;;;;;1.43;0.90;;;19.90;83.60;;;;;;4947552;28;21047;-79
2022/07/29 02:44:26;;;;;;;1.40;0.90;;;19.90;83.60;;;;;;4954749;28;20503;-78
2022/07/29 02:46:59;;;;;;;1.47;0.90;;;19.80;84.00;;;;;;4951287;28;20505;-80
2022/07/29 02:49:36;;;;;;;1.43;0.90;;;19.80;83.60;;;;;;4950910;28;20503;-80
2022/07/29 02:52:05;;;;;;;1.43;0.90;;;19.80;83.90;;;;;;4941387;28;20565;-83
2022/07/29 02:54:43;;;;;;;1.47;0.90;;;19.70;83.60;;;;;;4944349;29;20473;-81
2022/07/29 02:57:16;;;;;;;1.50;1.00;;;19.70;83.40;;;;;;4946831;28;20514;-81
2022/07/29 02:59:46;;;;;;;1.47;0.90;;;19.70;83.70;;;;;;4951436;29;20463;-80
2022/07/29 03:02:16;;;;;;;1.43;0.90;;;19.70;83.50;;;;;;4945788;28;21008;-82
2022/07/29 03:04:46;;;;;;;1.43;0.90;;;19.70;83.00;;;;;;4952338;29;20722;-80
2022/07/29 03:07:16;;;;;;;1.43;0.90;;;19.80;83.40;;;;;;4946888;28;20490;-79
2022/07/29 03:09:45;;;;;;;1.50;0.90;;;19.70;83.80;;;;;;4954135;28;20491;-81
2022/07/29 03:12:13;;;;;;;1.43;0.90;;;19.70;83.70;;;;;;4950394;28;20498;-79
2022/07/29 03:14:40;;;;;;;1.47;0.90;;;19.60;83.30;;;;;;4954907;28;20502;-82
2022/07/29 03:17:08;;;;;;;1.47;0.90;;;19.60;83.50;;;;;;4947461;28;20546;-80
2022/07/29 03:19:35;;;;;;;1.43;0.90;;;19.50;83.50;;;;;;4954929;29;20462;-81
2022/07/29 03:22:04;;;;;;;1.47;0.90;;;19.50;83.50;;;;;;4943892;28;20491;-79
2022/07/29 03:24:33;;;;;;;1.47;0.90;;;19.50;83.50;;;;;;4954281;29;20557;-77
2022/07/29 03:27:01;;;;;;;1.50;1.00;;;19.50;83.90;;;;;;4947391;28;20474;-81
2022/07/29 03:29:28;;;;;;;1.47;0.90;;;19.50;84.40;;;;;;4953259;29;20549;-81
2022/07/29 03:31:55;;;;;;;1.50;0.90;;;19.50;84.60;;;;;;4947610;28;20502;-79
2022/07/29 03:34:22;;;;;;;1.43;0.90;;;19.50;84.50;;;;;;4952549;29;21104;-78
2022/07/29 03:36:50;;;;;;;1.43;0.90;;;19.40;85.00;;;;;;4942085;28;20489;-79
2022/07/29 03:39:22;;;;;;;1.43;0.90;;;19.40;85.50;;;;;;4948327;28;20557;-79
2022/07/29 03:41:53;;;;;;;1.40;0.90;;;19.30;85.90;;;;;;4946245;28;20546;-80
2022/07/29 03:44:23;;;;;;;1.50;0.90;;;19.20;86.30;;;;;;4948454;29;20984;-80
2022/07/29 03:46:52;;;;;;;1.43;1.00;;;19.10;87.10;;;;;;4952394;28;20558;-78
2022/07/29 03:49:21;;;;;;;1.47;0.90;;;19.00;87.60;;;;;;4956784;28;20739;-80
2022/07/29 03:51:48;;;;;;;1.47;1.00;;;18.90;87.60;;;;;;4944708;28;20486;-79
2022/07/29 03:54:15;;;;;;;1.93;1.27;;;18.90;87.80;;;;;;4952148;29;21023;-79
2022/07/29 03:56:47;;;;;;;1.47;0.90;;;18.80;88.00;;;;;;4943173;28;20490;-74
2022/07/29 03:59:16;;;;;;;1.43;0.90;;;18.70;88.30;;;;;;4953291;29;20473;-78
2022/07/29 04:01:45;;;;;;;1.47;0.90;;;18.60;88.60;;;;;;4944514;28;20719;-79
2022/07/29 04:04:13;;;;;;;1.47;0.90;;;18.50;88.90;;;;;;4953335;28;21008;-78
2022/07/29 04:06:41;;;;;;;1.43;1.00;;;18.50;89.50;;;;;;4948936;28;21079;-78
2022/07/29 04:09:08;;;;;;;1.47;0.90;;;18.50;89.30;;;;;;4955636;29;20475;-78
2022/07/29 04:11:37;;;;;;;1.47;0.90;;;18.40;89.30;;;;;;4946988;28;20574;-77
2022/07/29 04:14:05;;;;;;;1.50;0.90;;;18.40;89.60;;;;;;4952350;29;20557;-79
2022/07/29 04:16:33;;;;;;;1.47;0.90;;;18.30;90.20;;;;;;4950289;28;20483;-79
2022/07/29 04:19:00;;;;;;;1.43;0.93;;;18.30;90.00;;;;;;4958771;28;20469;-79
2022/07/29 04:21:27;;;;;;;1.47;0.90;;;18.30;90.60;;;;;;4952252;28;20589;-79
2022/07/29 04:23:54;;;;;;;1.43;0.90;;;18.30;90.40;;;;;;4956557;28;20785;-78
2022/07/29 04:26:22;;;;;;;1.50;0.90;;;18.40;92.00;;;;;;4945240;28;20772;-79
2022/07/29 04:28:49;;;;;;;1.47;0.90;;;18.30;93.20;;;;;;4957873;28;20490;-78
2022/07/29 04:31:17;;;;;;;1.43;0.90;;;18.30;94.40;;;;;;4949587;28;20629;-78
2022/07/29 04:33:44;;;;;;;1.50;0.90;;;18.10;94.30;;;;;;4958599;28;20473;-80
2022/07/29 04:36:11;;;;;;;1.47;0.90;;;18.10;94.70;;;;;;4951293;28;20479;-81
2022/07/29 04:38:39;;;;;;;1.47;0.90;;;18.00;95.10;;;;;;4960082;28;20674;-79
2022/07/29 04:41:08;;;;;;;1.47;1.00;;;17.80;95.30;;;;;;4952351;28;20841;-78
2022/07/29 04:43:35;;;;;;;1.50;1.00;;;17.80;95.70;;;;;;4960614;28;20498;-80
2022/07/29 04:46:02;;;;;;;1.47;1.00;;;17.80;95.80;;;;;;4950608;28;20902;-82
2022/07/29 04:48:31;;;;;;;1.50;1.10;;;17.70;95.20;;;;;;4963693;28;20495;-79
2022/07/29 04:50:59;;;;;;;1.47;0.90;;;17.70;95.50;;;;;;4949606;28;20481;-76
2022/07/29 04:53:26;;;;;;;1.50;1.00;;;17.70;95.20;;;;;;4955273;29;20574;-78
2022/07/29 04:55:53;;;;;;;1.50;1.00;;;17.80;95.20;;;;;;4947018;29;20485;-76
2022/07/29 04:58:22;;;;;;;1.47;1.00;;;17.80;95.20;;;;;;4958314;28;20526;-77
2022/07/29 05:00:50;;;;;;;1.40;0.90;;;17.90;95.70;;;;;;4944009;29;20467;-78
2022/07/29 05:03:17;;;;;;;1.50;1.00;;;17.90;95.20;;;;;;4959087;28;20490;-79
2022/07/29 05:05:45;;;;;;;1.47;0.90;;;17.90;95.40;;;;;;4956565;29;20459;-77
2022/07/29 05:08:12;;;;;;;1.47;0.90;;;17.90;95.50;;;;;;4930231;29;20514;-77
2022/07/29 05:10:39;;;;;;;1.50;0.90;;;18.00;95.40;;;;;;4958373;29;20882;-77
2022/07/29 05:13:07;;;;;;;1.50;0.90;;;18.00;95.50;;;;;;4946441;28;20487;-78
2022/07/29 05:15:58;;;;;;;1.47;0.90;;;18.00;95.30;;;;;;4960247;28;20467;-77
2022/07/29 05:18:43;;;;;;;1.50;1.00;;;18.00;95.50;;;;;;4935869;29;20835;-77
2022/07/29 05:21:49;;;;;;;1.47;0.90;;;18.00;95.00;;;;;;4954057;28;20482;-78
2022/07/29 05:24:41;;;;;;;1.50;0.90;;;18.00;94.90;;;;;;4933087;29;20467;-76
2022/07/29 05:27:33;;;;;;;1.47;1.00;;;18.00;94.30;;;;;;4947666;28;20479;-77
2022/07/29 05:30:17;;;;;;;1.40;0.90;;;18.00;94.20;;;;;;4962363;29;20478;-77
2022/07/29 05:32:44;;;;;;;1.40;0.90;;;18.00;94.30;;;;;;4950891;28;21106;-76
2022/07/29 05:35:11;;;;;;;1.43;1.00;;;18.10;93.80;;;;;;4952660;29;20551;-78
2022/07/29 05:37:39;;;;;;;1.40;0.90;;;18.10;93.80;;;;;;4948495;28;20563;-77
2022/07/29 05:40:08;;;;;;;1.47;0.90;;;18.10;93.40;;;;;;4954488;29;20521;-78
2022/07/29 05:42:36;;;;;;;1.43;1.00;;;18.10;92.90;;;;;;4948665;28;20605;-78
2022/07/29 05:45:04;;;;;;;1.50;1.00;;;18.20;92.80;;;;;;4956476;28;20462;-77
2022/07/29 05:47:32;;;;;;;1.43;1.00;;;18.20;92.90;;;;;;4956034;28;20540;-78
2022/07/29 05:49:59;;;;;;;1.40;0.90;;;18.30;93.10;;;;;;4957075;29;20486;-83
2022/07/29 05:52:26;;;;;;;1.40;0.90;;;18.30;92.90;;;;;;4947439;28;20490;-78
2022/07/29 05:54:54;;;;;;;1.50;0.90;;;18.30;92.70;;;;;;4958957;28;20478;-79
2022/07/29 05:57:23;;;;;;;1.50;1.00;;;18.40;92.40;;;;;;4944056;28;20535;-79
2022/07/29 05:59:51;;;;;;;1.40;1.00;;;18.50;92.40;;;;;;4959914;28;20463;-78
2022/07/29 06:02:19;;;;;;;1.47;0.90;;;18.60;91.50;;;;;;4946099;28;20877;-82
2022/07/29 06:04:46;;;;;;;1.50;0.90;;;18.70;91.60;;;;;;4952462;29;20474;-80
2022/07/29 06:07:13;;;;;;;1.43;0.90;;;18.80;91.30;;;;;;4947902;28;20479;-78
2022/07/29 06:09:40;;;;;;;1.43;0.90;;;18.90;90.20;;;;;;4949813;29;20487;-80
2022/07/29 06:12:09;;;;;;;1.43;0.90;;;19.00;89.90;;;;;;4951777;28;20478;-81
2022/07/29 06:14:37;;;;;;;1.47;0.90;;;19.00;90.00;;;;;;4956438;28;20497;-79
2022/07/29 06:17:05;;;;;;;1.47;0.90;;;19.10;90.10;;;;;;4949579;28;20482;-80
2022/07/29 06:19:34;;;;;;;1.47;0.90;;;19.20;89.80;;;;;;4955805;28;20970;-84
2022/07/29 06:22:02;;;;;;;1.40;0.87;;;19.30;90.40;;;;;;4951662;28;20562;-81
2022/07/29 06:24:29;;;;;;;1.40;0.90;;;19.40;90.00;;;;;;4956730;29;20462;-79
2022/07/29 06:26:56;;;;;;;1.50;1.00;;;19.40;88.30;;;;;;4949051;28;20502;-80
2022/07/29 06:29:25;;;;;;;1.50;1.00;;;19.50;88.80;;;;;;4952195;28;21013;-82
2022/07/29 06:31:53;;;;;;;1.43;0.90;;;19.50;88.10;;;;;;4946110;28;20497;-80
2022/07/29 06:34:21;;;;;;;1.50;1.00;;;19.60;87.80;;;;;;4955532;28;20470;-79
2022/07/29 06:36:49;;;;;;;1.50;0.90;;;19.70;88.30;;;;;;4950332;28;20491;-81
2022/07/29 06:39:17;;;;;;;1.43;0.90;;;19.70;88.10;;;;;;4954716;29;20459;-78
2022/07/29 06:41:48;;;;;;;1.43;0.90;;;19.70;88.00;;;;;;4949260;28;20517;-81
2022/07/29 06:44:15;;;;;;;1.50;1.00;;;19.80;88.00;;;;;;4960009;28;20490;-81
2022/07/29 06:46:44;;;;;;;1.47;0.90;;;19.80;87.60;;;;;;4951199;28;20499;-79
2022/07/29 06:49:12;;;;;;;1.50;0.90;;;19.80;87.70;;;;;;4958152;28;20902;-79
2022/07/29 06:51:39;;;;;;;1.47;0.90;;;19.80;88.50;;;;;;4949125;28;20589;-78
2022/07/29 06:54:07;;;;;;;1.47;1.00;;;19.80;89.20;;;;;;4955748;29;20467;-80
2022/07/29 06:56:37;;;;;;;1.47;0.90;;;19.80;90.10;;;;;;4944943;28;20571;-80
2022/07/29 06:59:04;;;;;;;1.47;0.90;;;19.80;90.20;;;;;;4955847;28;20833;-78
2022/07/29 07:01:31;;;;;;;1.43;0.90;;;19.80;91.30;;;;;;4947536;28;20489;-77
2022/07/29 07:04:00;;;;;;;1.47;0.90;;;19.70;93.40;;;;;;4955056;29;21403;-76
2022/07/29 07:06:27;;;;;;;1.43;0.80;;;19.70;94.60;;;;;;4927946;28;20511;-78
2022/07/29 07:08:54;;;;;;;1.50;0.90;;;19.60;95.60;;;;;;4955123;28;20498;-79
2022/07/29 07:11:22;;;;;;;1.50;0.90;;;19.60;96.70;;;;;;4945549;28;20496;-79
2022/07/29 07:13:49;;;;;;;1.47;0.90;;;19.60;98.20;;;;;;4953630;29;20463;-80
2022/07/29 07:16:16;;;;;;;1.47;0.90;;;19.50;98.10;;;;;;4945287;28;20495;-80
2022/07/29 07:18:44;;;;;;;1.47;0.90;;;19.50;98.20;;;;;;4954179;28;20463;-76
2022/07/29 07:21:13;;;;;;;1.47;0.90;;;19.50;98.20;;;;;;4942938;28;20904;-77
2022/07/29 07:23:41;;;;;;;1.40;0.90;;;19.50;98.20;;;;;;4953832;29;20494;-78
2022/07/29 07:26:08;;;;;;;1.43;0.90;;;19.50;98.00;;;;;;4946488;28;20479;-77
2022/07/29 07:28:35;;;;;;;1.40;1.00;;;19.50;98.20;;;;;;4957976;28;20873;-78
2022/07/29 07:31:03;;;;;;;1.47;0.90;;;19.40;98.20;;;;;;4943856;28;20467;-77
2022/07/29 07:33:30;;;;;;;1.50;0.90;;;19.30;98.20;;;;;;4952986;28;20466;-75
2022/07/29 07:35:57;;;;;;;1.47;0.90;;;19.20;98.20;;;;;;4942683;28;20514;-77
2022/07/29 07:38:26;;;;;;;1.50;0.90;;;19.10;98.20;;;;;;4957462;28;20526;-77
2022/07/29 07:40:53;;;;;;;1.47;0.90;;;18.90;98.20;;;;;;4943150;29;20470;-78
2022/07/29 07:43:21;;;;;;;1.50;1.00;;;18.80;98.20;;;;;;4956243;28;20471;-77
2022/07/29 07:45:48;;;;;;;1.43;0.90;;;18.80;98.20;;;;;;4944746;28;20475;-78
2022/07/29 07:48:15;;;;;;;1.47;0.90;;;18.90;98.20;;;;;;4957411;28;20863;-79
2022/07/29 07:50:43;;;;;;;1.47;0.90;;;18.90;98.20;;;;;;4953531;29;20467;-79
2022/07/29 07:53:10;;;;;;;1.40;0.90;;;18.90;98.20;;;;;;4930749;29;20549;-79
2022/07/29 07:55:43;;;;;;;1.50;1.10;;;19.00;98.20;;;;;;4953832;29;20473;-79
2022/07/29 07:58:10;;;;;;;1.43;0.90;;;19.00;98.20;;;;;;4929855;28;20511;-79
2022/07/29 08:00:39;;;;;;;1.43;0.90;;;19.00;98.20;;;;;;4952504;29;20510;-81
2022/07/29 08:03:12;;;;;;;1.43;0.90;;;19.10;98.20;;;;;;4945417;28;20517;-79
2022/07/29 08:05:40;;;;;;;1.47;0.90;;;19.10;98.20;;;;;;4953121;29;20467;-80
2022/07/29 08:08:07;;;;;;;1.43;0.90;;;19.10;98.20;;;;;;4944356;28;20482;-80
2022/07/29 08:10:53;;;;;;;1.43;0.90;;;19.10;98.20;;;;;;4959777;28;20482;-80
2022/07/29 08:13:24;;;;;;;1.43;0.90;;;19.10;98.20;;;;;;4929462;29;20486;-79
2022/07/29 08:15:57;;;;;;;1.43;0.90;;;19.00;98.20;;;;;;4944061;28;20463;-78
2022/07/29 08:18:34;;;;;;;1.40;0.97;;;19.10;98.20;;;;;;4956307;28;20483;-79
2022/07/29 08:21:02;;;;;;;1.47;0.90;;;19.10;98.20;;;;;;4944603;28;20473;-79
2022/07/29 08:23:38;;;;;;;1.50;1.00;;;19.20;98.20;;;;;;4958557;28;20471;-79
2022/07/29 08:26:05;;;;;;;1.47;0.90;;;19.30;98.20;;;;;;4943263;28;20628;-79
2022/07/29 08:28:35;;;;;;;1.40;0.90;;;19.30;98.20;;;;;;4957556;28;21040;-78
2022/07/29 08:31:03;;;;;;;1.43;0.90;;;19.40;98.20;;;;;;4925368;28;20702;-79
2022/07/29 08:33:30;;;;;;;1.43;0.90;;;19.40;98.20;;;;;;4956629;28;20516;-80
2022/07/29 08:35:57;;;;;;;1.47;0.90;;;19.40;98.20;;;;;;4942188;28;20471;-80
2022/07/29 08:38:25;;;;;;;1.47;0.90;;;19.50;98.20;;;;;;4955735;28;20672;-79
2022/07/29 08:41:05;;;;;;;1.47;0.90;;;19.60;98.20;;;;;;4942242;28;20493;-80
2022/07/29 08:43:37;;;;;;;1.40;0.90;;;19.70;98.20;;;;;;4951903;29;20497;-80
2022/07/29 08:46:04;;;;;;;1.47;0.90;;;19.70;98.20;;;;;;4945912;28;20463;-80
2022/07/29 08:48:32;;;;;;;1.50;0.90;;;19.70;98.20;;;;;;4956880;28;20573;-78
2022/07/29 08:51:01;;;;;;;1.47;0.90;;;19.80;98.20;;;;;;4945473;28;20466;-79
2022/07/29 08:53:30;;;;;;;1.50;0.90;;;19.80;98.20;;;;;;4959088;28;20471;-78
2022/07/29 08:55:59;;;;;;;1.47;0.87;;;19.80;98.20;;;;;;4946623;28;20740;-78
2022/07/29 08:58:28;;;;;;;1.47;0.90;;;19.80;98.20;;;;;;4954472;29;20463;-79
2022/07/29 09:04:17;;;;;;;1.50;0.90;;;19.80;98.20;;;;;;4950542;29;22408;-78
2022/07/29 09:06:47;;;;;;;1.50;0.90;;;19.80;98.20;;;;;;4945196;28;20912;-78
2022/07/29 09:09:14;;;;;;;1.43;0.90;;;19.90;98.20;;;;;;4955658;28;20491;-77
2022/07/29 09:11:45;;;;;;;1.43;0.90;;;20.00;98.20;;;;;;4949923;28;20958;-78
2022/07/29 09:14:14;;;;;;;1.50;0.90;;;20.00;98.20;;;;;;4955343;28;20553;-77
2022/07/29 09:16:52;;;;;;;1.43;0.90;;;20.10;98.20;;;;;;4943561;28;20482;-80
2022/07/29 09:19:30;;;;;;;1.47;0.90;;;20.10;98.20;;;;;;4948662;28;20474;-79
2022/07/29 09:21:58;;;;;;;1.43;0.90;;;20.10;98.20;;;;;;4944160;28;20493;-78
2022/07/29 09:24:27;;;;;;;1.43;0.90;;;20.10;98.20;;;;;;4954437;29;20497;-79
2022/07/29 09:26:54;;;;;;;1.50;1.00;;;20.10;98.20;;;;;;4950083;28;20478;-78
2022/07/29 09:29:25;;;;;;;1.50;0.90;;;20.10;98.20;;;;;;4952995;29;20485;-78
2022/07/29 09:31:53;;;;;;;1.40;0.90;;;20.10;98.20;;;;;;4950686;28;20482;-78
2022/07/29 09:34:24;;;;;;;1.50;0.90;;;20.20;98.20;;;;;;4953573;29;20549;-78
2022/07/29 09:36:55;;;;;;;1.47;0.90;;;20.20;98.20;;;;;;4951549;28;20548;-78
2022/07/29 09:39:31;;;;;;;1.50;0.90;;;20.20;98.20;;;;;;4959097;28;20491;-78
2022/07/29 09:42:00;;;;;;;1.50;1.10;;;20.30;98.20;;;;;;4948279;28;20482;-77
2022/07/29 09:44:28;;;;;;;1.47;0.90;;;20.30;98.20;;;;;;4953472;28;20463;-79
2022/07/29 09:47:05;;;;;;;1.47;0.90;;;20.30;98.20;;;;;;4943367;28;20585;-77
2022/07/29 09:49:33;;;;;;;1.43;0.90;;;20.40;98.20;;;;;;4956127;28;20509;-79
2022/07/29 09:52:06;;;;;;;1.47;0.90;;;20.40;98.20;;;;;;4952346;28;20494;-79
2022/07/29 09:54:36;;;;;;;1.47;0.90;;;20.50;98.20;;;;;;4956221;28;20846;-78
2022/07/29 09:57:05;;;;;;;1.47;0.90;;;20.60;98.20;;;;;;4943915;28;20507;-78
2022/07/29 09:59:33;;;;;;;1.50;0.90;;;20.70;98.20;;;;;;4954387;29;20458;-78
2022/07/29 10:02:01;;;;;;;1.50;0.90;;;20.90;98.20;;;;;;4947194;28;21060;-79
2022/07/29 10:04:41;;;;;;;1.47;0.90;;;21.00;98.20;;;;;;4951988;28;20470;-79
2022/07/29 10:07:10;;;;;;;1.47;0.90;;;21.20;98.20;;;;;;4944781;28;20490;-79
2022/07/29 10:09:38;;;;;;;1.50;0.90;;;21.40;98.20;;;;;;4954128;29;20587;-79
2022/07/29 10:12:10;;;;;;;1.47;0.90;;;21.50;98.20;;;;;;4943875;28;20487;-78
2022/07/29 10:14:38;;;;;;;1.47;0.90;;;21.70;98.20;;;;;;4955180;28;20555;-79
2022/07/29 10:17:07;;;;;;;1.50;0.90;;;21.90;98.10;;;;;;4945328;28;20556;-78
2022/07/29 10:19:36;;;;;;;1.50;0.90;;;22.00;97.60;;;;;;4955105;29;20960;-79
2022/07/29 10:22:07;;;;;;;1.47;0.90;;;22.00;96.90;;;;;;4948500;28;21293;-79
2022/07/29 10:24:37;;;;;;;1.47;0.90;;;22.00;96.50;;;;;;4953725;28;20501;-78
2022/07/29 10:27:06;;;;;;;1.50;0.90;;;22.10;95.40;;;;;;4941907;28;20618;-78
2022/07/29 10:29:33;;;;;;;1.47;0.87;;;22.10;94.90;;;;;;4955938;29;20498;-79
2022/07/29 10:32:23;;;;;;;1.43;0.90;;;22.20;94.50;;;;;;4943994;28;20490;-79
2022/07/29 10:35:27;;;;;;;1.43;0.90;;;22.30;95.30;;;;;;4953576;29;20471;-79
2022/07/29 10:38:22;;;;;;;1.50;0.90;;;22.30;95.60;;;;;;4916175;29;20486;-79
2022/07/29 10:43:49;;;;;;;1.47;0.90;;;22.10;95.00;;;;;;4955366;29;20824;-78
2022/07/29 10:46:18;;;;;;;1.50;0.90;;;22.00;94.80;;;;;;4947765;28;20558;-79
2022/07/29 10:49:14;;;;;;;1.50;1.00;;;22.00;95.50;;;;;;4955513;28;20463;-79
2022/07/29 10:52:05;;;;;;;1.43;0.90;;;22.20;94.90;;;;;;4940240;28;20758;-78
2022/07/29 10:54:49;;;;;;;1.47;0.90;;;22.30;94.60;;;;;;4953978;29;20514;-79
2022/07/29 10:57:26;;;;;;;1.43;0.90;;;22.50;93.50;;;;;;4947386;28;21019;-79
2022/07/29 11:00:25;;;;;;;1.50;0.90;;;22.60;93.90;;;;;;4954240;29;20466;-79
2022/07/29 11:03:06;;;;;;;1.47;0.90;;;22.90;93.30;;;;;;4929997;28;21800;-80
2022/07/29 11:09:19;;;;;;;1.50;0.90;;;23.60;91.10;;;;;;4922659;29;20486;-79
2022/07/29 11:11:46;;;;;;;1.43;0.80;;;24.10;87.90;;;;;;4946421;28;20518;-79
2022/07/29 11:14:17;;;;;;;1.50;0.90;;;24.40;87.00;;;;;;4955626;28;20513;-78
2022/07/29 11:17:03;;;;;;;1.50;0.90;;;24.70;82.90;;;;;;4943764;28;20487;-79
2022/07/29 11:19:30;;;;;;;1.47;0.90;;;25.00;81.60;;;;;;4949635;29;20823;-80
2022/07/29 11:21:58;;;;;;;1.50;0.90;;;25.10;81.00;;;;;;4944951;28;20501;-80
2022/07/29 11:24:32;;;;;;;1.47;0.90;;;25.30;80.70;;;;;;4954242;28;20469;-80
2022/07/29 11:27:16;;;;;;;1.50;0.90;;;25.20;79.10;;;;;;4945876;28;20932;-78
2022/07/29 11:30:03;;;;;;;1.47;0.90;;;25.10;80.50;;;;;;4956187;29;20593;-78
2022/07/29 11:32:38;;;;;;;1.50;0.90;;;25.30;80.80;;;;;;4936522;28;20490;-79
2022/07/29 11:35:17;;;;;;;1.50;0.90;;;25.60;78.80;;;;;;4951847;29;20462;-78
2022/07/29 11:37:45;;;;;;;1.40;0.80;;;25.70;77.10;;;;;;4942222;28;20781;-77
2022/07/29 11:40:15;;;;;;;1.43;0.83;;;25.90;76.60;;;;;;4953666;29;20713;-78
2022/07/29 11:42:45;;;;;;;1.47;0.90;;;25.90;76.20;;;;;;4943562;28;20491;-77
2022/07/29 11:45:18;;;;;;;1.43;0.80;;;25.90;75.70;;;;;;4953422;28;20463;-78
2022/07/29 11:47:52;;;;;;;1.47;0.80;;;25.90;73.70;;;;;;4940357;28;20490;-77
2022/07/29 11:50:30;;;;;;;1.47;0.90;;;25.80;73.40;;;;;;4954903;28;20534;-79
2022/07/29 11:52:57;;;;;;;1.50;0.80;;;25.90;75.70;;;;;;4945407;28;20615;-77
2022/07/29 11:55:25;;;;;;;1.50;0.80;;;26.10;75.00;;;;;;4952479;29;20471;-79
2022/07/29 11:57:55;;;;;;;1.50;0.90;;;26.40;73.40;;;;;;4943998;28;20494;-79
2022/07/29 12:00:32;;;;;;;1.50;0.80;;;26.80;73.50;;;;;;4951422;28;20513;-79
2022/07/29 12:03:03;;;;;;;1.43;0.80;;;27.20;71.90;;;;;;4936647;28;20875;-80
2022/07/29 12:05:37;;;;;;;1.47;0.80;;;27.50;69.70;;;;;;4951083;29;20501;-79
2022/07/29 12:08:12;;;;;;;1.50;0.80;;;27.70;70.70;;;;;;4943485;28;20477;-78
2022/07/29 12:10:41;;;;;;;1.50;0.90;;;27.90;71.10;;;;;;4947710;28;20492;-78
2022/07/29 12:13:08;;;;;;;1.47;0.80;;;28.10;69.40;;;;;;4939025;28;20566;-78
2022/07/29 12:15:38;;;;;;;1.47;0.80;;;28.20;67.40;;;;;;4946905;29;20469;-79
2022/07/29 12:18:16;;;;;;;1.47;0.80;;;28.10;67.60;;;;;;4935395;28;21122;-78
2022/07/29 12:20:45;;;;;;;1.50;0.80;;;28.10;66.90;;;;;;4948748;29;20478;-78
2022/07/29 12:23:13;;;;;;;1.50;0.80;;;28.10;66.00;;;;;;4919646;29;20868;-77
2022/07/29 12:25:41;;;;;;;1.47;0.90;;;28.10;67.20;;;;;;4952093;28;20533;-79
2022/07/29 12:28:10;;;;;;;1.50;0.80;;;28.10;67.00;;;;;;4949425;28;20492;-80
2022/07/29 12:30:44;;;;;;;1.43;0.80;;;28.20;67.70;;;;;;4952813;29;20494;-78
2022/07/29 12:33:16;;;;;;;1.50;0.80;;;28.10;68.40;;;;;;4948250;28;21042;-79
2022/07/29 12:35:45;;;;;;;1.47;0.90;;;28.20;69.20;;;;;;4946728;29;20476;-78
2022/07/29 12:38:14;;;;;;;1.43;0.80;;;28.30;70.30;;;;;;4935222;28;21769;-79
2022/07/29 12:40:47;;;;;;;1.60;1.20;;;28.40;69.60;;;;;;4956588;28;20517;-78
2022/07/29 12:43:16;;;;;;;1.50;0.90;;;28.70;70.00;;;;;;4927444;29;20513;-79
2022/07/29 12:45:47;;;;;;;1.47;0.80;;;28.70;68.50;;;;;;4955992;28;20466;-76
2022/07/29 12:48:15;;;;;;;1.50;0.80;;;28.80;69.50;;;;;;4930272;29;20478;-77
2022/07/29 12:50:57;;;;;;;1.43;0.80;;;28.80;70.50;;;;;;4953166;29;20582;-77
2022/07/29 12:53:26;;;;;;;1.50;0.80;;;29.10;69.50;;;;;;4927642;29;20521;-77
2022/07/29 12:55:55;;;;;;;1.43;0.80;;;29.20;69.80;;;;;;4944020;28;20494;-78
2022/07/29 12:58:34;;;;;;;1.50;1.00;;;29.20;69.30;;;;;;4952135;28;20521;-78
2022/07/29 13:01:08;;;;;;;1.50;1.00;;;29.30;69.60;;;;;;4942547;28;20749;-77
2022/07/29 13:03:51;;;;;;;1.40;0.80;;;29.50;69.00;;;;;;4955124;28;20474;-77
2022/07/29 13:06:40;;;;;;;1.47;0.80;;;29.60;68.90;;;;;;4945561;28;21322;-78
2022/07/29 13:09:10;;;;;;;1.47;0.90;;;29.50;67.40;;;;;;4954787;28;20553;-76
2022/07/29 13:11:40;;;;;;;1.43;0.80;;;29.40;68.90;;;;;;4943885;28;20498;-77
2022/07/29 13:14:09;;;;;;;1.40;0.80;;;29.40;67.50;;;;;;4948671;28;20845;-79
2022/07/29 13:16:59;;;;;;;1.47;0.80;;;29.50;66.80;;;;;;4939793;28;20491;-79